Vremea acum in Arad - Romania

Vrei sa afli care e starea vremii acum in Arad - Romania? Dorim sa iti furnizam starea vremii pentru Arad - Romania. Starea vremii Arad - Romania pentru astazi.

Vremea acum in Arad

Temperatura: 23 °C

Se simte ca: 25 °C
Innorat: 25 %
Precipitatii: 80 %
Presiune atmosferica: 1019 hPa
Umiditate: 65%
Vizibilitate: 10 km
Vantul bate din E cu 11.2 km/h

Evolutia vremii in Arad pe ore

Ora: 00:00
Ploi pe porţiuni în apropiere
Temperatura: 23.2°C
Sansa de precipitatii: 80%
Ora Descriere Temp Se simte Precipitatii Umiditate Vant
00:00Ploi pe porţiuni în apropiere23.2°25°80%57%ENE 6.5 KM/H
01:00Ploi pe porţiuni în apropiere22.6°24.8°78%61%E 5 KM/H
02:00Ploi pe porţiuni în apropiere22°24.6°77%64%ESE 4 KM/H
03:00Ploi pe porţiuni în apropiere21.5°21.5°79%66%ESE 5.4 KM/H
04:00Ploi pe porţiuni în apropiere21°21°80%68%ESE 6.8 KM/H
05:00Ploi pe porţiuni în apropiere20.5°20.5°82%70%ESE 8.3 KM/H
06:00Parțial noros21.7°21.7°55%67%ESE 7.9 KM/H
07:00Ploi pe porţiuni în apropiere22.9°23.8°27%64%ESE 7.9 KM/H
08:00Parțial noros24.1°25.5°0%60%E 7.6 KM/H
09:00Parțial noros26.4°27.4°0%53%SE 6.1 KM/H
10:00Parțial noros28.7°29.3°0%46%SSE 5 KM/H
11:00Parțial noros31°31.2°0%39%S 3.6 KM/H
12:00Parțial noros31.9°32°0%36%SW 4.7 KM/H
13:00Parțial noros32.7°32.7°0%34%WSW 5.8 KM/H
14:00Parțial noros33.6°33.5°0%31%WNW 6.8 KM/H
15:00Parțial noros33.8°33.6°0%30%WNW 6.5 KM/H
16:00Parțial noros34°33.8°0%29%WNW 5.8 KM/H
17:00Parțial noros34.2°33.9°0%29%NW 5.4 KM/H
18:00Parțial noros33.2°33.7°0%38%SW 7.9 KM/H
19:00Parțial noros32.2°33.4°0%48%SE 10.4 KM/H
20:00Parțial noros31.2°33.2°0%58%ENE 13 KM/H
21:00Ploi uşoare şi de scurtă durată30.5°33.2°21%62%E 13 KM/H
22:00Parțial noros29.9°33.2°43%66%ESE 13 KM/H
23:00Ploi uşoare şi de scurtă durată29.2°33.2°64%70%SE 13 KM/H